Marshall Don Hunter Sr Airport
PADM : now visible

Aeroporto :











RITROVATECI SU...

 
LOGIN :

Iscrizione | Disclaimer

   EN    FR    IT 

 









Sommario :    VFR   VFR Marginale   IFR   IFR Intensivo   IFR Molto Intensivo
Visibilità : 
Base nubi : 
>= 8 km
>= 3000ft
5 / 8 km
1000 / 3000 ft
1500m / 5 km
500 / 1000 ft
800 / 1500m
200 / 500 ft
< 800m
< 200 ft
Simboli :   Temporali  Nebbia  Neve Forte  Precipitazioni Forti  Vento > 20 kt






- Altitudine del aeroporto : 103 ft


PADM - Marshall Don Hunter Sr

ULTIMO METAR :
  • 301002Z AUTO 05016KT 10SM CLR M09/M18 A3019 RMK AO2 SLP229 T10891183 FZRANO

METARs OBSOLETI :
  • 300902Z AUTO 05010KT 10SM CLR M10/M18 A3020 RMK AO2 SLP234 T11001178 55000 FZRANO
  • 300802Z AUTO 03007KT 10SM CLR M10/M17 A3022 RMK AO2 SLP240 T11001172 411001100 FZRANO

TAF N/A



MetMap, La meteo Aeronautica in un colpo d'occhio ! - Copyright ORBIFLY Dicembre 2007 - Disclaimer

ORBIFLY MET'MAP TEAM :

Programmazione e sviluppo : Alexandra Zaïnal
Concezione : Baudouin d'Aumeries
Aiuto per la programmazione : Marc-Olivier Méhu
Supporto tecnico e logistico : Manuel Goepfert
Aiuto per la traduzione : Arnaldo La Scala

Contatto : metmap@orbifly.com




FONTI E CREDITI :

   NOAA       Earth
Advisory